Flight Track Log - Related Links

Times and Time Zones

All times are in EDT time to prevent confusion due to time zone crossing. See the SWA921 flight status page for this flight to view local times or setup timezone preferences in your user account.

Time Position Orientation Groundspeed Altitude Reporting Facility
EDT Latitude Longitude Course Direction KTS MPH feet Rate Location/Type
Fri 10:35:47 AM 41.7964 -87.7053 86° East 176 203 2,400  Level Chicago Center
Fri 10:36:49 AM 41.7731 -87.6181 110° East 231 266 4,500 2,565 Climbing Chicago Center
Fri 10:37:51 AM 41.7600 -87.5231 100° East 270 311 7,700 3,194 Climbing Chicago Center
Fri 10:38:53 AM 41.7608 -87.4142 89° East 293 337 11,100 3,360 Climbing Chicago Center
Fri 10:39:56 AM 41.7619 -87.2839 89° East 325 374 14,700 2,736 Climbing Chicago Center
Fri 10:40:58 AM 41.7622 -87.1458 90° East 380 437 16,800 2,419 Climbing Chicago Center
Fri 10:41:00 AM 41.7506 -86.8051 86° East  Level FlightAware Approximate
Fri 10:42:00 AM 41.7619 -86.9828 90° East 400 460 19,700  Level Chicago Center
Fri 10:43:02 AM 41.7606 -86.8244 91° East 420 483 22,400 2,371 Climbing Chicago Center
Fri 10:44:04 AM 41.7606 -86.6792 90° East 430 495 24,600 2,032 Climbing Chicago Center
Fri 10:45:06 AM 41.7578 -86.5106 91° East 451 519 26,600 2,032 Climbing Chicago Center
Fri 10:46:08 AM 41.7569 -86.3008 90° East 467 537 28,800 1,839 Climbing Chicago Center
Fri 10:47:10 AM 41.7564 -86.1200 90° East 481 554 30,400 1,488 Climbing Chicago Center
Fri 10:48:13 AM 41.7572 -85.9347 90° East 494 568 31,900 1,548 Climbing Chicago Center
Fri 10:49:14 AM 41.7600 -85.7458 89° East 501 577 33,600 1,610 Climbing Chicago Center
Fri 10:50:16 AM 41.7786 -85.5606 82° East 500 575 35,200 1,584 Climbing Chicago Center
Fri 10:51:19 AM 41.8572 -85.4108 55° Northeast 485 558 36,900 1,392 Climbing Chicago Center
Fri 10:52:21 AM 41.9342 -85.2633 55° Northeast 480 552 38,100 968 Climbing Chicago Center
Fri 10:53:23 AM 41.9611 -85.0867 78° East 499 574 38,900 435 Climbing Chicago Center
Fri 10:54:25 AM 41.9764 -84.8647 85° East 498 573 39,000 48 Climbing Chicago Center
Fri 10:55:27 AM 41.9989 -84.6689 81° East 504 580 39,000  Level Chicago Center
Fri 10:56:04 AM 42.0100 -84.5692 81° East 498 573 39,000  Level Cleveland Center
Fri 10:57:07 AM 42.0311 -84.3842 81° East 500 575 39,000  Level Cleveland Center
Fri 10:58:09 AM 42.0536 -84.1808 81° East 500 575 39,000  Level Cleveland Center
Fri 10:59:11 AM 42.0747 -83.9969 81° East 500 575 39,000  Level Cleveland Center
Fri 11:00:13 AM 42.0942 -83.8136 82° East 500 575 39,000  Level Cleveland Center
Fri 11:01:15 AM 42.1133 -83.6331 82° East 495 570 39,000  Level Cleveland Center
Fri 11:02:17 AM 42.1347 -83.4300 82° East 496 571 39,000  Level Cleveland Center
Fri 11:03:19 AM 42.1558 -83.2447 81° East 497 572 39,000  Level Cleveland Center
Fri 11:04:21 AM 42.1753 -83.0553 82° East 497 572 39,000  Level Cleveland Center
Fri 11:05:23 AM 42.1939 -82.8742 82° East 496 571 39,000  Level Cleveland Center
Fri 11:06:25 AM 42.2161 -82.6553 82° East 495 570 39,000  Level Cleveland Center
Fri 11:07:27 AM 42.2339 -82.4728 82° East 494 568 39,000  Level Cleveland Center
Fri 11:08:30 AM 42.2517 -82.2908 82° East 494 568 39,000  Level Cleveland Center
Fri 11:09:32 AM 42.2700 -82.1028 82° East 493 567 39,000  Level Cleveland Center
Fri 11:10:34 AM 42.2869 -81.9164 83° East 493 567 39,000  Level Cleveland Center
Fri 11:11:36 AM 42.3042 -81.7308 83° East 493 567 39,000  Level Cleveland Center
Fri 11:12:38 AM 42.3203 -81.5456 83° East 493 567 39,000  Level Cleveland Center
Fri 11:13:40 AM 42.3389 -81.3294 83° East 493 567 39,000  Level Cleveland Center
Fri 11:14:42 AM 42.3567 -81.1450 83° East 492 566 39,000  Level Cleveland Center
Fri 11:15:44 AM 42.3711 -80.9608 84° East 490 564 39,000  Level Cleveland Center
Fri 11:16:46 AM 42.3867 -80.7764 83° East 490 564 39,000  Level Cleveland Center
Fri 11:17:48 AM 42.4019 -80.5928 84° East 485 558 39,000  Level Cleveland Center
Fri 11:18:50 AM 42.4178 -80.4092 83° East 485 558 39,000  Level Cleveland Center
Fri 11:19:51 AM 42.4308 -80.2250 84° East 488 562 39,000  Level Cleveland Center
Fri 11:20:53 AM 42.4447 -80.0403 84° East 488 562 39,000  Level Cleveland Center
Fri 11:21:55 AM 42.4608 -79.8306 84° East 484 557 39,000  Level Cleveland Center
Fri 11:22:57 AM 42.4744 -79.6456 84° East 490 564 39,000  Level Cleveland Center
Fri 11:23:59 AM 42.4875 -79.4631 84° East 490 564 39,000  Level Cleveland Center
Fri 11:25:01 AM 42.4997 -79.2800 85° East 490 564 39,000  Level Cleveland Center
Fri 11:26:03 AM 42.5122 -79.0969 85° East 490 564 39,000  Level Cleveland Center
Fri 11:27:04 AM 42.5242 -78.9111 85° East 494 568 39,000  Level Cleveland Center
Fri 11:28:06 AM 42.5367 -78.7267 85° East 494 568 39,000  Level Cleveland Center
Fri 11:29:08 AM 42.5500 -78.5061 85° East 491 565 39,000  Level Cleveland Center
Fri 11:30:10 AM 42.5625 -78.3208 85° East 491 565 39,000  Level Cleveland Center
Fri 11:31:12 AM 42.5736 -78.1336 85° East 496 571 39,000  Level Cleveland Center
Fri 11:32:13 AM 42.5847 -77.9464 85° East 499 574 39,000  Level Cleveland Center
Fri 11:33:15 AM 42.5961 -77.7331 86° East 499 574 39,000  Level Cleveland Center
Fri 11:34:17 AM 42.6064 -77.5453 86° East 500 575 39,000  Level Cleveland Center
Fri 11:35:19 AM 42.6167 -77.3586 86° East 503 579 39,000  Level Cleveland Center
Fri 11:36:21 AM 42.6264 -77.1706 86° East 503 579 39,000  Level Cleveland Center
Fri 11:37:22 AM 42.6356 -76.9814 86° East 503 579 39,000  Level Cleveland Center
Fri 11:38:24 AM 42.6444 -76.7908 86° East 503 579 39,000  Level Cleveland Center
Fri 11:39:26 AM 42.6547 -76.5631 86° East 504 580 39,000  Level Cleveland Center
Fri 11:40:28 AM 42.6644 -76.3686 86° East 504 580 39,000 -435 Level Cleveland Center
Fri 11:41:30 AM 42.6725 -76.1792 87° East 504 580 38,100 -1,210 Descending Cleveland Center
Fri 11:42:32 AM 42.6800 -75.9917 87° East 504 580 36,500 -1,561 Descending Cleveland Center
Fri 11:43:33 AM 42.6872 -75.8075 87° East 495 570 34,900 -1,463 Descending Cleveland Center
Fri 11:44:35 AM 42.6939 -75.6214 87° East 495 570 33,500 -1,548 Descending Cleveland Center
Fri 11:45:37 AM 42.7022 -75.3958 87° East 496 571 31,700 -1,645 Descending Cleveland Center
Fri 11:46:39 AM 42.7081 -75.2094 87° East 496 571 30,100 -1,306 Descending Cleveland Center
Fri 11:47:41 AM 42.7142 -75.0269 87° East 495 570 29,000 -458 Descending Cleveland Center
Fri 11:49:03 AM 42.7219 -74.7758 88° East 485 558 29,000  Level Boston Center
Fri 11:50:05 AM 42.7267 -74.5939 88° East 485 558 29,000  Level Boston Center
Fri 11:51:07 AM 42.7328 -74.4125 87° East 484 557 29,000 -244 Level Boston Center
Fri 11:52:08 AM 42.7383 -74.2303 88° East 484 557 28,500 -780 Descending Boston Center
Fri 11:53:10 AM 42.7275 -74.0231 94° East 482 555 27,400 -1,016 Descending Boston Center
Fri 11:54:12 AM 42.7092 -73.8433 98° East 482 555 26,400 -976 Descending Boston Center
Fri 11:55:13 AM 42.6917 -73.6689 98° East 470 541 25,400 -976 Descending Boston Center
Fri 11:56:15 AM 42.6753 -73.4953 97° East 467 537 24,400 -968 Descending Boston Center
Fri 11:57:17 AM 42.6592 -73.3256 97° East 458 527 23,400 -976 Descending Boston Center
Fri 11:58:18 AM 42.6547 -73.1569 92° East 444 511 22,400 -976 Descending Boston Center
Fri 11:59:20 AM 42.6811 -72.9908 78° East 430 495 21,400 -1,016 Descending Boston Center
Fri 12:00:22 PM 42.7064 -72.8364 77° East 424 488 20,300 -1,366 Descending Boston Center
Fri 12:01:23 PM 42.7350 -72.6569 78° East 414 476 18,600 -1,854 Descending Boston Center
Fri 12:02:25 PM 42.7583 -72.5131 77° East 397 457 16,500 -2,032 Descending Boston Center
Fri 12:03:27 PM 42.7814 -72.3753 77° East 380 437 14,400 -2,098 Descending Boston Center
Fri 12:04:28 PM 42.8019 -72.2289 79° East 368 423 12,200 -1,902 Descending Boston Center
Fri 12:05:30 PM 42.8094 -72.0956 86° East 356 410 10,500 -1,258 Descending Boston Center
Fri 12:06:32 PM 42.8192 -71.9694 84° East 311 358 9,600 -677 Descending Boston Center
Fri 12:07:34 PM 42.8283 -71.8589 84° East 298 343 9,100 -732 Descending Boston Center
Fri 12:08:35 PM 42.8583 -71.7589 68° East 291 335 8,100 -1,171 Descending Boston Center
Fri 12:09:37 PM 42.8892 -71.6533 68° East 281 323 6,700 -1,403 Descending Boston Center
Fri 12:10:39 PM 42.9056 -71.5492 78° East 285 328 5,200 -1,258 Descending Boston Center
Fri 12:11:41 PM 42.8447 -71.4825 141° Southeast 283 326 4,100 -585 Descending Boston Center
Fri 12:12:42 PM 42.7758 -71.4556 164° South 262 302 4,000 -537 Descending Boston Center
Fri 12:13:44 PM 42.7367 -71.3819 126° Southeast 257 296 3,000 -774 Descending Boston Center
Fri 12:14:46 PM 42.7867 -71.3475 27° Northeast 208 239 2,400 -484 Descending Boston Center
Fri 12:15:48 PM 42.8350 -71.3758 337° Northwest 188 216 2,000 -537 Descending Boston Center
Fri 12:16:49 PM 42.8750 -71.3986 337° Northwest 157 181 1,300 -732 Descending Boston Center
Fri 12:17:51 PM 42.9117 -71.4208 336° Northwest 139 160 500 -774 Descending Boston Center
Fri 12:19:00 PM 42.9167 -71.4333 316° Northwest  Level FlightAware Approximate
Fri 12:26:00 PM 42.9328 -71.4358 316° Northwest  Level Estimated

Login

Don't have an account? Register now (free) for customized features, flight alerts, and more!